sensor_id;sensor_type;location;lat;lon;timestamp;pressure;altitude;pressure_sealevel;temperature;humidity
60049;BME280;66154;45.544;6.756;2024-02-23T00:02:55;85690.59;;;2.92;63.40
60049;BME280;66154;45.544;6.756;2024-02-23T00:07:58;85684.34;;;2.90;63.70
60049;BME280;66154;45.544;6.756;2024-02-23T00:12:59;85687.38;;;2.88;64.41
60049;BME280;66154;45.544;6.756;2024-02-23T00:18:00;85679.25;;;2.86;66.17
60049;BME280;66154;45.544;6.756;2024-02-23T00:23:03;85684.53;;;2.83;63.30
60049;BME280;66154;45.544;6.756;2024-02-23T00:28:05;85684.69;;;2.75;65.80
60049;BME280;66154;45.544;6.756;2024-02-23T00:33:05;85684.13;;;2.68;71.86
60049;BME280;66154;45.544;6.756;2024-02-23T00:38:06;85678.34;;;2.60;63.21
60049;BME280;66154;45.544;6.756;2024-02-23T00:43:07;85659.94;;;2.55;65.16
60049;BME280;66154;45.544;6.756;2024-02-23T00:48:08;85644.06;;;2.53;65.57
60049;BME280;66154;45.544;6.756;2024-02-23T00:53:08;85640.75;;;2.52;66.61
60049;BME280;66154;45.544;6.756;2024-02-23T00:58:09;85649.84;;;2.44;66.63
60049;BME280;66154;45.544;6.756;2024-02-23T01:03:09;85634.28;;;2.44;66.88
60049;BME280;66154;45.544;6.756;2024-02-23T01:08:10;85620.16;;;2.45;65.44
60049;BME280;66154;45.544;6.756;2024-02-23T01:13:10;85615.06;;;2.42;62.30
60049;BME280;66154;45.544;6.756;2024-02-23T01:18:11;85606.31;;;2.36;64.38
60049;BME280;66154;45.544;6.756;2024-02-23T01:23:11;85598.19;;;2.34;65.45
60049;BME280;66154;45.544;6.756;2024-02-23T01:28:12;85602.75;;;2.30;66.37
60049;BME280;66154;45.544;6.756;2024-02-23T01:33:12;85602.03;;;2.29;65.33
60049;BME280;66154;45.544;6.756;2024-02-23T01:38:13;85602.09;;;2.26;64.45
60049;BME280;66154;45.544;6.756;2024-02-23T01:43:19;85584.75;;;2.23;64.45
60049;BME280;66154;45.544;6.756;2024-02-23T01:48:20;85582.56;;;2.21;64.46
60049;BME280;66154;45.544;6.756;2024-02-23T01:53:21;85581.53;;;2.19;63.92
60049;BME280;66154;45.544;6.756;2024-02-23T01:58:22;85574.22;;;2.14;65.71
60049;BME280;66154;45.544;6.756;2024-02-23T02:03:24;85571.00;;;2.10;64.90
60049;BME280;66154;45.544;6.756;2024-02-23T02:08:26;85555.84;;;2.08;64.23
60049;BME280;66154;45.544;6.756;2024-02-23T02:13:30;85529.19;;;2.08;65.16
60049;BME280;66154;45.544;6.756;2024-02-23T02:18:30;85507.09;;;2.03;63.47
60049;BME280;66154;45.544;6.756;2024-02-23T02:23:31;85489.34;;;2.02;64.67
60049;BME280;66154;45.544;6.756;2024-02-23T02:28:32;85495.66;;;2.01;65.31
60049;BME280;66154;45.544;6.756;2024-02-23T02:33:32;85496.47;;;1.98;65.78
60049;BME280;66154;45.544;6.756;2024-02-23T02:38:33;85496.91;;;1.96;65.28
60049;BME280;66154;45.544;6.756;2024-02-23T02:43:33;85494.31;;;1.96;64.78
60049;BME280;66154;45.544;6.756;2024-02-23T02:48:34;85502.88;;;1.93;65.19
60049;BME280;66154;45.544;6.756;2024-02-23T02:53:34;85488.06;;;1.94;63.44
60049;BME280;66154;45.544;6.756;2024-02-23T02:58:35;85458.19;;;1.89;62.08
60049;BME280;66154;45.544;6.756;2024-02-23T03:03:36;85444.34;;;1.79;62.95
60049;BME280;66154;45.544;6.756;2024-02-23T03:08:36;85430.13;;;1.71;63.37
60049;BME280;66154;45.544;6.756;2024-02-23T03:13:37;85419.59;;;1.62;63.90
60049;BME280;66154;45.544;6.756;2024-02-23T03:18:37;85425.28;;;1.57;65.82
60049;BME280;66154;45.544;6.756;2024-02-23T03:23:38;85413.38;;;1.60;67.68
60049;BME280;66154;45.544;6.756;2024-02-23T03:28:38;85410.84;;;1.56;64.24
60049;BME280;66154;45.544;6.756;2024-02-23T03:33:39;85413.53;;;1.53;64.62
60049;BME280;66154;45.544;6.756;2024-02-23T03:38:40;85422.53;;;1.48;65.45
60049;BME280;66154;45.544;6.756;2024-02-23T03:43:41;85411.13;;;1.46;63.58
60049;BME280;66154;45.544;6.756;2024-02-23T03:48:41;85417.09;;;1.43;65.18
60049;BME280;66154;45.544;6.756;2024-02-23T03:53:42;85413.13;;;1.38;63.06
60049;BME280;66154;45.544;6.756;2024-02-23T03:58:42;85429.94;;;1.30;69.33
60049;BME280;66154;45.544;6.756;2024-02-23T04:03:43;85417.09;;;1.27;67.55
60049;BME280;66154;45.544;6.756;2024-02-23T04:08:44;85397.44;;;1.29;63.18
60049;BME280;66154;45.544;6.756;2024-02-23T04:13:44;85396.38;;;1.27;65.39
60049;BME280;66154;45.544;6.756;2024-02-23T04:18:45;85396.16;;;1.21;66.81
60049;BME280;66154;45.544;6.756;2024-02-23T04:23:46;85377.63;;;1.23;64.42
60049;BME280;66154;45.544;6.756;2024-02-23T04:28:46;85367.69;;;1.21;64.10
60049;BME280;66154;45.544;6.756;2024-02-23T04:33:47;85371.06;;;1.18;63.45
60049;BME280;66154;45.544;6.756;2024-02-23T04:38:47;85358.94;;;1.15;62.81
60049;BME280;66154;45.544;6.756;2024-02-23T04:43:48;85369.75;;;1.10;65.73
60049;BME280;66154;45.544;6.756;2024-02-23T04:48:48;85359.81;;;1.09;66.12
60049;BME280;66154;45.544;6.756;2024-02-23T04:53:49;85362.50;;;1.05;66.08
60049;BME280;66154;45.544;6.756;2024-02-23T04:58:51;85359.75;;;0.96;67.50
60049;BME280;66154;45.544;6.756;2024-02-23T05:03:51;85357.38;;;0.85;66.34
60049;BME280;66154;45.544;6.756;2024-02-23T05:08:52;85370.06;;;0.80;69.45
60049;BME280;66154;45.544;6.756;2024-02-23T05:13:53;85366.75;;;0.79;66.63
60049;BME280;66154;45.544;6.756;2024-02-23T05:18:53;85367.06;;;0.81;66.43
60049;BME280;66154;45.544;6.756;2024-02-23T05:23:54;85366.66;;;0.83;66.19
60049;BME280;66154;45.544;6.756;2024-02-23T05:28:54;85367.06;;;0.81;63.09
60049;BME280;66154;45.544;6.756;2024-02-23T05:33:55;85368.03;;;0.71;67.93
60049;BME280;66154;45.544;6.756;2024-02-23T05:38:55;85382.25;;;0.63;64.81
60049;BME280;66154;45.544;6.756;2024-02-23T05:43:56;85382.31;;;0.60;68.40
60049;BME280;66154;45.544;6.756;2024-02-23T05:48:57;85380.13;;;0.58;66.91
60049;BME280;66154;45.544;6.756;2024-02-23T05:53:58;85385.22;;;0.62;66.12
60049;BME280;66154;45.544;6.756;2024-02-23T05:58:58;85391.13;;;0.62;62.10
60049;BME280;66154;45.544;6.756;2024-02-23T06:03:59;85401.53;;;0.59;66.67
60049;BME280;66154;45.544;6.756;2024-02-23T06:08:59;85392.34;;;0.58;66.36
60049;BME280;66154;45.544;6.756;2024-02-23T06:14:00;85381.13;;;0.45;66.28
60049;BME280;66154;45.544;6.756;2024-02-23T06:19:01;85393.16;;;0.35;65.82
60049;BME280;66154;45.544;6.756;2024-02-23T06:24:03;85402.63;;;0.22;64.11
60049;BME280;66154;45.544;6.756;2024-02-23T06:29:04;85411.38;;;0.09;65.18
60049;BME280;66154;45.544;6.756;2024-02-23T06:34:06;85421.03;;;0.05;67.24
60049;BME280;66154;45.544;6.756;2024-02-23T06:39:06;85423.19;;;0.10;67.18
60049;BME280;66154;45.544;6.756;2024-02-23T06:44:07;85415.63;;;0.19;66.58
60049;BME280;66154;45.544;6.756;2024-02-23T06:49:07;85421.78;;;0.25;65.60
60049;BME280;66154;45.544;6.756;2024-02-23T06:54:08;85424.97;;;0.32;66.08
60049;BME280;66154;45.544;6.756;2024-02-23T06:59:09;85435.56;;;0.38;64.86
60049;BME280;66154;45.544;6.756;2024-02-23T07:04:09;85430.00;;;0.39;66.37
60049;BME280;66154;45.544;6.756;2024-02-23T07:09:10;85443.25;;;0.41;67.99
60049;BME280;66154;45.544;6.756;2024-02-23T07:14:11;85443.97;;;0.42;76.33
60049;BME280;66154;45.544;6.756;2024-02-23T07:19:14;85439.06;;;0.28;63.49
60049;BME280;66154;45.544;6.756;2024-02-23T07:24:14;85445.38;;;0.27;62.05
60049;BME280;66154;45.544;6.756;2024-02-23T07:29:15;85459.41;;;0.26;62.98
60049;BME280;66154;45.544;6.756;2024-02-23T07:34:15;85455.31;;;0.28;63.14
60049;BME280;66154;45.544;6.756;2024-02-23T07:39:16;85457.34;;;0.37;62.51
60049;BME280;66154;45.544;6.756;2024-02-23T07:44:16;85455.09;;;0.39;63.20
60049;BME280;66154;45.544;6.756;2024-02-23T07:49:17;85453.31;;;0.36;62.45
60049;BME280;66154;45.544;6.756;2024-02-23T07:54:19;85450.06;;;0.32;62.97
60049;BME280;66154;45.544;6.756;2024-02-23T07:59:19;85439.06;;;0.28;62.88
60049;BME280;66154;45.544;6.756;2024-02-23T08:04:20;85434.78;;;0.21;62.81
60049;BME280;66154;45.544;6.756;2024-02-23T08:09:20;85441.59;;;0.12;62.05
60049;BME280;66154;45.544;6.756;2024-02-23T08:14:23;85433.56;;;0.06;61.83
60049;BME280;66154;45.544;6.756;2024-02-23T08:19:24;85429.19;;;0.03;62.04
60049;BME280;66154;45.544;6.756;2024-02-23T08:24:24;85430.00;;;0.00;63.51
60049;BME280;66154;45.544;6.756;2024-02-23T08:29:27;85432.19;;;0.02;61.65
60049;BME280;66154;45.544;6.756;2024-02-23T08:34:27;85428.13;;;0.00;62.42
60049;BME280;66154;45.544;6.756;2024-02-23T08:39:28;85427.41;;;0.00;61.99
60049;BME280;66154;45.544;6.756;2024-02-23T08:44:29;85417.78;;;0.00;62.15
60049;BME280;66154;45.544;6.756;2024-02-23T08:49:29;85419.53;;;0.07;61.62
60049;BME280;66154;45.544;6.756;2024-02-23T08:54:30;85414.38;;;0.07;62.01
60049;BME280;66154;45.544;6.756;2024-02-23T08:59:30;85415.44;;;0.10;61.50
60049;BME280;66154;45.544;6.756;2024-02-23T09:04:31;85404.63;;;0.15;60.60
60049;BME280;66154;45.544;6.756;2024-02-23T09:09:32;85401.97;;;0.18;61.92
60049;BME280;66154;45.544;6.756;2024-02-23T09:14:32;85414.75;;;0.25;61.00
60049;BME280;66154;45.544;6.756;2024-02-23T09:19:34;85419.88;;;0.29;60.30
60049;BME280;66154;45.544;6.756;2024-02-23T09:24:35;85423.50;;;0.31;61.26
60049;BME280;66154;45.544;6.756;2024-02-23T09:29:40;85430.72;;;0.40;61.56
60049;BME280;66154;45.544;6.756;2024-02-23T09:34:41;85429.31;;;0.55;61.57
60049;BME280;66154;45.544;6.756;2024-02-23T09:39:41;85430.50;;;0.70;62.66
60049;BME280;66154;45.544;6.756;2024-02-23T09:44:44;85431.31;;;0.83;61.40
60049;BME280;66154;45.544;6.756;2024-02-23T09:49:47;85423.03;;;0.91;62.33
60049;BME280;66154;45.544;6.756;2024-02-23T09:54:50;85427.19;;;1.05;61.25
60049;BME280;66154;45.544;6.756;2024-02-23T09:59:51;85419.50;;;1.18;62.29
60049;BME280;66154;45.544;6.756;2024-02-23T10:04:53;85423.25;;;1.33;62.80
60049;BME280;66154;45.544;6.756;2024-02-23T10:09:56;85420.41;;;1.43;61.29
60049;BME280;66154;45.544;6.756;2024-02-23T10:14:56;85407.63;;;1.52;62.42
60049;BME280;66154;45.544;6.756;2024-02-23T10:19:57;85407.28;;;1.66;61.93
60049;BME280;66154;45.544;6.756;2024-02-23T10:24:57;85403.50;;;1.71;61.35
60049;BME280;66154;45.544;6.756;2024-02-23T10:29:58;85403.41;;;1.74;61.36
60049;BME280;66154;45.544;6.756;2024-02-23T10:35:00;85392.22;;;1.77;61.19
60049;BME280;66154;45.544;6.756;2024-02-23T10:40:07;85388.72;;;1.84;60.91
60049;BME280;66154;45.544;6.756;2024-02-23T10:45:09;85383.13;;;1.85;61.07
60049;BME280;66154;45.544;6.756;2024-02-23T10:50:10;85383.78;;;1.90;60.84
60049;BME280;66154;45.544;6.756;2024-02-23T10:55:14;85379.25;;;1.94;60.61
60049;BME280;66154;45.544;6.756;2024-02-23T11:00:15;85370.34;;;1.95;60.71
60049;BME280;66154;45.544;6.756;2024-02-23T11:05:19;85376.78;;;2.03;60.66
60049;BME280;66154;45.544;6.756;2024-02-23T11:10:22;85364.06;;;2.08;60.80
60049;BME280;66154;45.544;6.756;2024-02-23T11:15:29;85368.75;;;2.13;60.79
60049;BME280;66154;45.544;6.756;2024-02-23T11:20:37;85364.09;;;2.21;60.93
60049;BME280;66154;45.544;6.756;2024-02-23T11:25:37;85365.06;;;2.27;61.07
60049;BME280;66154;45.544;6.756;2024-02-23T11:30:43;85361.84;;;2.35;61.36
60049;BME280;66154;45.544;6.756;2024-02-23T11:35:48;85361.16;;;2.47;60.70
60049;BME280;66154;45.544;6.756;2024-02-23T11:40:50;85349.44;;;2.55;60.86
60049;BME280;66154;45.544;6.756;2024-02-23T11:45:52;85342.09;;;2.66;61.32
60049;BME280;66154;45.544;6.756;2024-02-23T11:50:53;85340.97;;;2.80;61.04
60049;BME280;66154;45.544;6.756;2024-02-23T11:55:53;85334.75;;;2.90;60.91
60049;BME280;66154;45.544;6.756;2024-02-23T12:00:54;85334.03;;;3.02;61.60
60049;BME280;66154;45.544;6.756;2024-02-23T12:05:56;85328.13;;;3.14;61.15
60049;BME280;66154;45.544;6.756;2024-02-23T12:10:57;85320.00;;;3.25;61.12
60049;BME280;66154;45.544;6.756;2024-02-23T12:16:00;85306.78;;;3.32;61.19
60049;BME280;66154;45.544;6.756;2024-02-23T12:21:05;85313.63;;;3.38;60.72
60049;BME280;66154;45.544;6.756;2024-02-23T12:26:06;85309.06;;;3.42;61.70
60049;BME280;66154;45.544;6.756;2024-02-23T12:31:07;85306.66;;;3.48;61.52
60049;BME280;66154;45.544;6.756;2024-02-23T12:36:08;85309.03;;;3.55;60.92
60049;BME280;66154;45.544;6.756;2024-02-23T12:41:09;85306.72;;;3.69;60.99
60049;BME280;66154;45.544;6.756;2024-02-23T12:46:11;85294.91;;;4.12;61.93
60049;BME280;66154;45.544;6.756;2024-02-23T12:51:14;85292.94;;;5.47;65.18
60049;BME280;66154;45.544;6.756;2024-02-23T12:56:15;85283.31;;;7.49;68.78
60049;BME280;66154;45.544;6.756;2024-02-23T13:01:16;85277.69;;;9.33;69.88
60049;BME280;66154;45.544;6.756;2024-02-23T13:06:17;85260.00;;;11.03;71.59
60049;BME280;66154;45.544;6.756;2024-02-23T13:11:17;85266.94;;;12.25;73.03
60049;BME280;66154;45.544;6.756;2024-02-23T13:16:18;85264.06;;;12.82;70.76
60049;BME280;66154;45.544;6.756;2024-02-23T13:21:19;85260.81;;;12.50;66.28
60049;BME280;66154;45.544;6.756;2024-02-23T13:26:20;85270.22;;;11.47;64.68
60049;BME280;66154;45.544;6.756;2024-02-23T13:31:20;85265.22;;;10.12;61.84
60049;BME280;66154;45.544;6.756;2024-02-23T13:36:21;85263.41;;;9.04;59.53
60049;BME280;66154;45.544;6.756;2024-02-23T13:41:21;85258.94;;;8.38;60.83
60049;BME280;66154;45.544;6.756;2024-02-23T13:46:22;85247.94;;;7.86;60.26
60049;BME280;66154;45.544;6.756;2024-02-23T13:51:23;85245.50;;;7.83;62.76
60049;BME280;66154;45.544;6.756;2024-02-23T13:56:23;85253.75;;;7.90;63.18
60049;BME280;66154;45.544;6.756;2024-02-23T14:01:24;85253.84;;;8.72;64.75
60049;BME280;66154;45.544;6.756;2024-02-23T14:06:25;85259.53;;;9.14;64.33
60049;BME280;66154;45.544;6.756;2024-02-23T14:11:25;85260.53;;;8.73;61.50
60049;BME280;66154;45.544;6.756;2024-02-23T14:16:26;85253.06;;;8.43;63.69
60049;BME280;66154;45.544;6.756;2024-02-23T14:21:26;85248.78;;;8.83;61.43
60049;BME280;66154;45.544;6.756;2024-02-23T14:26:27;85247.97;;;8.92;62.44
60049;BME280;66154;45.544;6.756;2024-02-23T14:31:28;85246.41;;;8.56;60.61
60049;BME280;66154;45.544;6.756;2024-02-23T14:36:28;85246.13;;;8.16;62.23
60049;BME280;66154;45.544;6.756;2024-02-23T14:41:34;85247.78;;;7.66;61.22
60049;BME280;66154;45.544;6.756;2024-02-23T14:46:34;85251.72;;;7.29;61.16
60049;BME280;66154;45.544;6.756;2024-02-23T14:51:35;85248.94;;;7.09;61.38
60049;BME280;66154;45.544;6.756;2024-02-23T14:56:36;85252.31;;;6.91;61.02
60049;BME280;66154;45.544;6.756;2024-02-23T15:01:37;85245.13;;;6.68;61.09
60049;BME280;66154;45.544;6.756;2024-02-23T15:06:38;85238.94;;;6.48;60.83
60049;BME280;66154;45.544;6.756;2024-02-23T15:11:39;85234.63;;;6.26;61.05
60049;BME280;66154;45.544;6.756;2024-02-23T15:16:40;85231.16;;;6.11;60.87
60049;BME280;66154;45.544;6.756;2024-02-23T15:21:40;85226.09;;;5.99;60.63
60049;BME280;66154;45.544;6.756;2024-02-23T15:26:42;85225.53;;;5.95;60.69
60049;BME280;66154;45.544;6.756;2024-02-23T15:31:43;85222.19;;;5.94;60.35
60049;BME280;66154;45.544;6.756;2024-02-23T15:36:43;85221.03;;;5.86;60.96
60049;BME280;66154;45.544;6.756;2024-02-23T15:41:44;85225.03;;;5.69;60.65
60049;BME280;66154;45.544;6.756;2024-02-23T15:46:45;85219.97;;;5.47;61.50
60049;BME280;66154;45.544;6.756;2024-02-23T15:51:46;85212.41;;;5.31;61.36
60049;BME280;66154;45.544;6.756;2024-02-23T15:56:46;85222.50;;;5.11;61.28
60049;BME280;66154;45.544;6.756;2024-02-23T16:01:47;85224.47;;;4.89;60.90
60049;BME280;66154;45.544;6.756;2024-02-23T16:06:48;85222.56;;;4.81;60.89
60049;BME280;66154;45.544;6.756;2024-02-23T16:11:48;85224.56;;;4.77;60.38
60049;BME280;66154;45.544;6.756;2024-02-23T16:16:49;85216.88;;;4.73;61.61
60049;BME280;66154;45.544;6.756;2024-02-23T16:21:50;85218.75;;;4.63;60.62
60049;BME280;66154;45.544;6.756;2024-02-23T16:26:51;85226.94;;;4.53;61.13
60049;BME280;66154;45.544;6.756;2024-02-23T16:31:51;85227.97;;;4.34;61.52
60049;BME280;66154;45.544;6.756;2024-02-23T16:36:52;85225.19;;;4.19;60.79
60049;BME280;66154;45.544;6.756;2024-02-23T16:41:52;85225.25;;;4.07;62.28
60049;BME280;66154;45.544;6.756;2024-02-23T16:46:53;85237.28;;;3.92;62.53
60049;BME280;66154;45.544;6.756;2024-02-23T16:51:54;85240.69;;;3.80;61.92
60049;BME280;66154;45.544;6.756;2024-02-23T16:56:54;85238.59;;;3.75;61.85
60049;BME280;66154;45.544;6.756;2024-02-23T17:01:55;85247.78;;;3.66;61.96
60049;BME280;66154;45.544;6.756;2024-02-23T17:06:56;85244.69;;;3.59;61.85
60049;BME280;66154;45.544;6.756;2024-02-23T17:11:57;85257.19;;;3.51;61.96
60049;BME280;66154;45.544;6.756;2024-02-23T17:16:57;85253.06;;;3.41;62.35
60049;BME280;66154;45.544;6.756;2024-02-23T17:21:58;85246.97;;;3.35;62.20
60049;BME280;66154;45.544;6.756;2024-02-23T17:26:59;85253.34;;;3.22;61.07
60049;BME280;66154;45.544;6.756;2024-02-23T17:32:00;85251.59;;;3.06;61.30
60049;BME280;66154;45.544;6.756;2024-02-23T17:37:00;85264.16;;;2.95;61.91
60049;BME280;66154;45.544;6.756;2024-02-23T17:42:02;85256.91;;;2.90;63.13
60049;BME280;66154;45.544;6.756;2024-02-23T17:47:03;85262.72;;;2.82;62.03
60049;BME280;66154;45.544;6.756;2024-02-23T17:52:04;85271.25;;;2.69;61.46
60049;BME280;66154;45.544;6.756;2024-02-23T17:57:04;85275.59;;;2.60;62.06
60049;BME280;66154;45.544;6.756;2024-02-23T18:02:05;85278.69;;;2.55;61.93
60049;BME280;66154;45.544;6.756;2024-02-23T18:07:06;85284.81;;;2.48;61.94
60049;BME280;66154;45.544;6.756;2024-02-23T18:12:07;85304.09;;;2.47;62.00
60049;BME280;66154;45.544;6.756;2024-02-23T18:17:08;85297.06;;;2.48;62.03
60049;BME280;66154;45.544;6.756;2024-02-23T18:22:08;85299.66;;;2.48;62.26
60049;BME280;66154;45.544;6.756;2024-02-23T18:27:10;85302.25;;;2.48;62.05
60049;BME280;66154;45.544;6.756;2024-02-23T18:32:10;85308.03;;;2.39;61.84
60049;BME280;66154;45.544;6.756;2024-02-23T18:37:12;85307.19;;;2.30;61.61
60049;BME280;66154;45.544;6.756;2024-02-23T18:42:12;85314.84;;;2.21;62.52
60049;BME280;66154;45.544;6.756;2024-02-23T18:47:13;85309.44;;;2.15;61.97
60049;BME280;66154;45.544;6.756;2024-02-23T18:52:13;85315.84;;;2.11;62.10
60049;BME280;66154;45.544;6.756;2024-02-23T18:57:15;85316.56;;;1.99;62.03
60049;BME280;66154;45.544;6.756;2024-02-23T19:02:15;85311.34;;;1.86;60.98
60049;BME280;66154;45.544;6.756;2024-02-23T19:07:16;85311.31;;;1.73;62.77
60049;BME280;66154;45.544;6.756;2024-02-23T19:12:17;85311.16;;;1.64;62.38
60049;BME280;66154;45.544;6.756;2024-02-23T19:17:17;85308.22;;;1.62;62.21
60049;BME280;66154;45.544;6.756;2024-02-23T19:22:18;85309.81;;;1.60;62.68
60049;BME280;66154;45.544;6.756;2024-02-23T19:27:18;85305.50;;;1.53;61.26
60049;BME280;66154;45.544;6.756;2024-02-23T19:32:21;85313.69;;;1.52;63.04
60049;BME280;66154;45.544;6.756;2024-02-23T19:37:22;85317.00;;;1.52;63.35
60049;BME280;66154;45.544;6.756;2024-02-23T19:42:24;85319.91;;;1.54;62.35
60049;BME280;66154;45.544;6.756;2024-02-23T19:47:25;85339.50;;;1.55;63.26
60049;BME280;66154;45.544;6.756;2024-02-23T19:52:28;85362.38;;;1.57;66.34
60049;BME280;66154;45.544;6.756;2024-02-23T19:57:29;85365.88;;;1.50;64.55
60049;BME280;66154;45.544;6.756;2024-02-23T20:02:30;85373.00;;;1.46;63.83
60049;BME280;66154;45.544;6.756;2024-02-23T20:07:30;85387.50;;;1.44;62.56
60049;BME280;66154;45.544;6.756;2024-02-23T20:12:31;85384.16;;;1.43;64.23
60049;BME280;66154;45.544;6.756;2024-02-23T20:17:31;85402.59;;;1.45;62.33
60049;BME280;66154;45.544;6.756;2024-02-23T20:22:32;85401.22;;;1.41;62.06
60049;BME280;66154;45.544;6.756;2024-02-23T20:27:32;85392.50;;;1.35;64.84
60049;BME280;66154;45.544;6.756;2024-02-23T20:32:33;85398.41;;;1.35;63.78
60049;BME280;66154;45.544;6.756;2024-02-23T20:37:34;85401.72;;;1.36;65.91
60049;BME280;66154;45.544;6.756;2024-02-23T20:42:34;85400.34;;;1.31;64.46
60049;BME280;66154;45.544;6.756;2024-02-23T20:47:35;85406.50;;;1.21;65.20
60049;BME280;66154;45.544;6.756;2024-02-23T20:52:36;85408.56;;;1.10;65.29
60049;BME280;66154;45.544;6.756;2024-02-23T20:57:36;85403.56;;;1.03;65.00
60049;BME280;66154;45.544;6.756;2024-02-23T21:02:37;85416.25;;;0.98;62.64
60049;BME280;66154;45.544;6.756;2024-02-23T21:07:38;85414.44;;;0.94;63.88
60049;BME280;66154;45.544;6.756;2024-02-23T21:12:39;85411.16;;;0.94;63.78
60049;BME280;66154;45.544;6.756;2024-02-23T21:17:39;85406.06;;;0.90;63.27
60049;BME280;66154;45.544;6.756;2024-02-23T21:22:40;85420.19;;;0.86;63.97
60049;BME280;66154;45.544;6.756;2024-02-23T21:27:40;85416.13;;;0.85;62.76
60049;BME280;66154;45.544;6.756;2024-02-23T21:32:41;85419.88;;;0.84;63.89
60049;BME280;66154;45.544;6.756;2024-02-23T21:37:41;85423.56;;;0.83;63.73
60049;BME280;66154;45.544;6.756;2024-02-23T21:42:42;85425.44;;;0.82;64.36
60049;BME280;66154;45.544;6.756;2024-02-23T21:47:43;85425.44;;;0.82;65.26
60049;BME280;66154;45.544;6.756;2024-02-23T21:52:46;85421.72;;;0.83;64.00
60049;BME280;66154;45.544;6.756;2024-02-23T21:57:47;85421.78;;;0.80;65.00
60049;BME280;66154;45.544;6.756;2024-02-23T22:02:47;85419.94;;;0.80;63.92
60049;BME280;66154;45.544;6.756;2024-02-23T22:07:48;85422.94;;;0.79;63.49
60049;BME280;66154;45.544;6.756;2024-02-23T22:12:49;85418.13;;;0.77;65.53
60049;BME280;66154;45.544;6.756;2024-02-23T22:17:49;85418.22;;;0.74;63.15
60049;BME280;66154;45.544;6.756;2024-02-23T22:22:50;85422.66;;;0.73;64.36
60049;BME280;66154;45.544;6.756;2024-02-23T22:27:50;85418.53;;;0.76;64.09
60049;BME280;66154;45.544;6.756;2024-02-23T22:32:51;85411.53;;;0.76;64.87
60049;BME280;66154;45.544;6.756;2024-02-23T22:37:51;85412.25;;;0.77;62.40
60049;BME280;66154;45.544;6.756;2024-02-23T22:42:52;85414.53;;;0.75;65.15
60049;BME280;66154;45.544;6.756;2024-02-23T22:47:53;85413.78;;;0.74;65.56
60049;BME280;66154;45.544;6.756;2024-02-23T22:52:53;85409.34;;;0.75;65.34
60049;BME280;66154;45.544;6.756;2024-02-23T22:57:54;85400.94;;;0.71;65.27
60049;BME280;66154;45.544;6.756;2024-02-23T23:02:54;85406.97;;;0.64;64.31
60049;BME280;66154;45.544;6.756;2024-02-23T23:07:55;85400.09;;;0.58;64.83
60049;BME280;66154;45.544;6.756;2024-02-23T23:12:55;85413.06;;;0.54;64.06
60049;BME280;66154;45.544;6.756;2024-02-23T23:17:56;85421.22;;;0.53;64.00
60049;BME280;66154;45.544;6.756;2024-02-23T23:22:56;85418.56;;;0.56;63.11
60049;BME280;66154;45.544;6.756;2024-02-23T23:27:57;85411.22;;;0.55;64.58
60049;BME280;66154;45.544;6.756;2024-02-23T23:32:57;85416.47;;;0.51;63.95
60049;BME280;66154;45.544;6.756;2024-02-23T23:37:58;85411.03;;;0.46;64.38
60049;BME280;66154;45.544;6.756;2024-02-23T23:42:58;85406.66;;;0.43;64.68
60049;BME280;66154;45.544;6.756;2024-02-23T23:47:59;85407.78;;;0.42;65.02
60049;BME280;66154;45.544;6.756;2024-02-23T23:53:00;85409.97;;;0.43;63.96
60049;BME280;66154;45.544;6.756;2024-02-23T23:58:00;85417.31;;;0.45;63.66
